Bradford, Canada
Current Conditions -  °F | °C
As of 7:00 AM on Friday 24 Oct 2014 (Local Time) from CYBN Reporting Station
Broken Clouds Broken Clouds  
Wind Chill: 25°   Ceiling: 1500
Heat Index: 25°   Visibility: 9mi
Dew Point: 25°   Wind: 0mph
Humidity: 100%   Direction: NA
Pressure: 30.05"   Gusts: NA
Location:  44.12°N, 79.57°W
Report Text: CYBN 241100Z AUTO 00000KT 9SM BKN015 M04/M04 A3005 RMK SLP185
Loading
Personal Weather Stations






























Interactive Weather Map
Tropical Storm Tracking
New forecast layout! Learn more

10-Day Weather Forecast

Advertisements
Track Severe Weather on mobile